sensor_id;sensor_type;location;lat;lon;timestamp;P1;durP1;ratioP1;P2;durP2;ratioP2
20383;SDS011;46458;50.966;7.002;2023-05-20T00:01:48;2.40;;;1.83;;
20383;SDS011;46458;50.966;7.002;2023-05-20T00:04:17;2.30;;;1.70;;
20383;SDS011;46458;50.966;7.002;2023-05-20T00:06:46;3.13;;;1.70;;
20383;SDS011;46458;50.966;7.002;2023-05-20T00:09:15;2.47;;;1.90;;
20383;SDS011;46458;50.966;7.002;2023-05-20T00:11:44;2.37;;;1.60;;
20383;SDS011;46458;50.966;7.002;2023-05-20T00:14:13;2.83;;;1.70;;
20383;SDS011;46458;50.966;7.002;2023-05-20T00:16:42;2.50;;;1.83;;
20383;SDS011;46458;50.966;7.002;2023-05-20T00:19:13;3.07;;;1.80;;
20383;SDS011;46458;50.966;7.002;2023-05-20T00:21:42;1.50;;;1.30;;
20383;SDS011;46458;50.966;7.002;2023-05-20T00:24:11;2.50;;;1.63;;
20383;SDS011;46458;50.966;7.002;2023-05-20T00:26:40;4.27;;;1.80;;
20383;SDS011;46458;50.966;7.002;2023-05-20T00:29:09;2.40;;;1.53;;
20383;SDS011;46458;50.966;7.002;2023-05-20T00:31:37;2.13;;;1.60;;
20383;SDS011;46458;50.966;7.002;2023-05-20T00:34:06;3.10;;;1.70;;
20383;SDS011;46458;50.966;7.002;2023-05-20T00:36:38;1.67;;;1.50;;
20383;SDS011;46458;50.966;7.002;2023-05-20T00:39:09;3.27;;;1.90;;
20383;SDS011;46458;50.966;7.002;2023-05-20T00:41:40;4.00;;;1.67;;
20383;SDS011;46458;50.966;7.002;2023-05-20T00:44:09;1.97;;;1.50;;
20383;SDS011;46458;50.966;7.002;2023-05-20T00:46:38;2.67;;;1.60;;
20383;SDS011;46458;50.966;7.002;2023-05-20T00:49:07;2.03;;;1.40;;
20383;SDS011;46458;50.966;7.002;2023-05-20T00:51:38;1.47;;;1.30;;
20383;SDS011;46458;50.966;7.002;2023-05-20T00:54:07;3.27;;;1.67;;
20383;SDS011;46458;50.966;7.002;2023-05-20T00:56:40;2.90;;;1.83;;
20383;SDS011;46458;50.966;7.002;2023-05-20T00:59:10;2.43;;;1.50;;
20383;SDS011;46458;50.966;7.002;2023-05-20T01:01:40;2.57;;;1.57;;
20383;SDS011;46458;50.966;7.002;2023-05-20T01:04:09;1.80;;;1.40;;
20383;SDS011;46458;50.966;7.002;2023-05-20T01:06:40;3.83;;;1.70;;
20383;SDS011;46458;50.966;7.002;2023-05-20T01:09:10;3.53;;;1.33;;
20383;SDS011;46458;50.966;7.002;2023-05-20T01:11:41;4.47;;;1.90;;
20383;SDS011;46458;50.966;7.002;2023-05-20T01:14:17;2.20;;;1.70;;
20383;SDS011;46458;50.966;7.002;2023-05-20T01:16:48;2.53;;;1.63;;
20383;SDS011;46458;50.966;7.002;2023-05-20T01:19:30;2.43;;;1.90;;
20383;SDS011;46458;50.966;7.002;2023-05-20T01:22:10;2.47;;;1.60;;
20383;SDS011;46458;50.966;7.002;2023-05-20T01:24:44;2.03;;;1.80;;
20383;SDS011;46458;50.966;7.002;2023-05-20T01:27:18;2.33;;;1.57;;
20383;SDS011;46458;50.966;7.002;2023-05-20T01:29:48;3.43;;;1.90;;
20383;SDS011;46458;50.966;7.002;2023-05-20T01:32:20;3.03;;;1.97;;
20383;SDS011;46458;50.966;7.002;2023-05-20T01:34:50;2.00;;;1.80;;
20383;SDS011;46458;50.966;7.002;2023-05-20T01:37:20;1.40;;;1.20;;
20383;SDS011;46458;50.966;7.002;2023-05-20T01:39:55;3.67;;;1.50;;
20383;SDS011;46458;50.966;7.002;2023-05-20T01:42:31;2.50;;;1.40;;
20383;SDS011;46458;50.966;7.002;2023-05-20T01:45:05;2.40;;;1.77;;
20383;SDS011;46458;50.966;7.002;2023-05-20T01:47:36;3.03;;;1.87;;
20383;SDS011;46458;50.966;7.002;2023-05-20T01:50:08;2.53;;;1.60;;
20383;SDS011;46458;50.966;7.002;2023-05-20T01:52:37;2.20;;;1.70;;
20383;SDS011;46458;50.966;7.002;2023-05-20T01:55:11;4.07;;;2.00;;
20383;SDS011;46458;50.966;7.002;2023-05-20T01:57:40;2.63;;;1.80;;
20383;SDS011;46458;50.966;7.002;2023-05-20T02:00:12;3.80;;;1.97;;
20383;SDS011;46458;50.966;7.002;2023-05-20T02:02:43;2.10;;;1.63;;
20383;SDS011;46458;50.966;7.002;2023-05-20T02:05:12;3.73;;;1.70;;
20383;SDS011;46458;50.966;7.002;2023-05-20T02:07:42;3.63;;;1.60;;
20383;SDS011;46458;50.966;7.002;2023-05-20T02:10:14;4.67;;;1.70;;
20383;SDS011;46458;50.966;7.002;2023-05-20T02:12:44;2.27;;;1.70;;
20383;SDS011;46458;50.966;7.002;2023-05-20T02:15:14;3.07;;;2.03;;
20383;SDS011;46458;50.966;7.002;2023-05-20T02:17:43;4.20;;;1.70;;
20383;SDS011;46458;50.966;7.002;2023-05-20T02:20:14;2.50;;;1.70;;
20383;SDS011;46458;50.966;7.002;2023-05-20T02:22:43;3.80;;;1.87;;
20383;SDS011;46458;50.966;7.002;2023-05-20T02:25:14;3.97;;;1.70;;
20383;SDS011;46458;50.966;7.002;2023-05-20T02:27:44;3.73;;;1.87;;
20383;SDS011;46458;50.966;7.002;2023-05-20T02:30:13;2.37;;;1.80;;
20383;SDS011;46458;50.966;7.002;2023-05-20T02:32:42;1.93;;;1.53;;
20383;SDS011;46458;50.966;7.002;2023-05-20T02:35:14;1.97;;;1.73;;
20383;SDS011;46458;50.966;7.002;2023-05-20T02:37:44;2.00;;;1.57;;
20383;SDS011;46458;50.966;7.002;2023-05-20T02:40:18;1.97;;;1.57;;
20383;SDS011;46458;50.966;7.002;2023-05-20T02:42:47;3.17;;;2.00;;
20383;SDS011;46458;50.966;7.002;2023-05-20T02:45:16;1.53;;;1.33;;
20383;SDS011;46458;50.966;7.002;2023-05-20T02:47:45;2.17;;;1.80;;
20383;SDS011;46458;50.966;7.002;2023-05-20T02:50:14;2.53;;;1.70;;
20383;SDS011;46458;50.966;7.002;2023-05-20T02:52:45;2.50;;;1.90;;
20383;SDS011;46458;50.966;7.002;2023-05-20T02:55:22;2.07;;;1.80;;
20383;SDS011;46458;50.966;7.002;2023-05-20T02:57:56;2.33;;;1.80;;
20383;SDS011;46458;50.966;7.002;2023-05-20T03:00:25;2.80;;;1.87;;
20383;SDS011;46458;50.966;7.002;2023-05-20T03:02:59;3.27;;;1.93;;
20383;SDS011;46458;50.966;7.002;2023-05-20T03:05:28;2.07;;;1.60;;
20383;SDS011;46458;50.966;7.002;2023-05-20T03:08:02;3.73;;;1.80;;
20383;SDS011;46458;50.966;7.002;2023-05-20T03:10:34;3.17;;;2.10;;
20383;SDS011;46458;50.966;7.002;2023-05-20T03:13:04;3.50;;;1.63;;
20383;SDS011;46458;50.966;7.002;2023-05-20T03:15:39;3.40;;;1.90;;
20383;SDS011;46458;50.966;7.002;2023-05-20T03:18:10;2.47;;;1.80;;
20383;SDS011;46458;50.966;7.002;2023-05-20T03:20:39;2.00;;;1.60;;
20383;SDS011;46458;50.966;7.002;2023-05-20T03:23:11;2.20;;;2.00;;
20383;SDS011;46458;50.966;7.002;2023-05-20T03:25:42;2.37;;;2.00;;
20383;SDS011;46458;50.966;7.002;2023-05-20T03:28:11;3.53;;;1.70;;
20383;SDS011;46458;50.966;7.002;2023-05-20T03:30:40;2.27;;;2.07;;
20383;SDS011;46458;50.966;7.002;2023-05-20T03:33:10;4.03;;;1.83;;
20383;SDS011;46458;50.966;7.002;2023-05-20T03:35:39;2.33;;;2.13;;
20383;SDS011;46458;50.966;7.002;2023-05-20T03:38:08;2.30;;;1.90;;
20383;SDS011;46458;50.966;7.002;2023-05-20T03:40:38;2.80;;;1.70;;
20383;SDS011;46458;50.966;7.002;2023-05-20T03:43:12;3.60;;;2.17;;
20383;SDS011;46458;50.966;7.002;2023-05-20T03:45:43;2.93;;;2.03;;
20383;SDS011;46458;50.966;7.002;2023-05-20T03:48:12;3.77;;;2.13;;
20383;SDS011;46458;50.966;7.002;2023-05-20T03:50:42;3.40;;;2.40;;
20383;SDS011;46458;50.966;7.002;2023-05-20T03:53:10;2.17;;;1.80;;
20383;SDS011;46458;50.966;7.002;2023-05-20T03:55:40;4.90;;;2.10;;
20383;SDS011;46458;50.966;7.002;2023-05-20T03:58:13;2.90;;;2.10;;
20383;SDS011;46458;50.966;7.002;2023-05-20T04:00:42;4.77;;;2.23;;
20383;SDS011;46458;50.966;7.002;2023-05-20T04:03:11;2.73;;;2.17;;
20383;SDS011;46458;50.966;7.002;2023-05-20T04:05:40;2.67;;;2.07;;
20383;SDS011;46458;50.966;7.002;2023-05-20T04:08:15;2.63;;;2.20;;
20383;SDS011;46458;50.966;7.002;2023-05-20T04:10:46;2.30;;;1.90;;
20383;SDS011;46458;50.966;7.002;2023-05-20T04:13:17;3.70;;;2.00;;
20383;SDS011;46458;50.966;7.002;2023-05-20T04:15:47;2.80;;;2.47;;
20383;SDS011;46458;50.966;7.002;2023-05-20T04:18:17;3.13;;;2.00;;
20383;SDS011;46458;50.966;7.002;2023-05-20T04:20:46;3.17;;;2.43;;
20383;SDS011;46458;50.966;7.002;2023-05-20T04:23:15;2.73;;;2.20;;
20383;SDS011;46458;50.966;7.002;2023-05-20T04:25:44;3.03;;;2.03;;
20383;SDS011;46458;50.966;7.002;2023-05-20T04:28:13;2.37;;;2.07;;
20383;SDS011;46458;50.966;7.002;2023-05-20T04:30:45;4.40;;;2.73;;
20383;SDS011;46458;50.966;7.002;2023-05-20T04:33:14;4.17;;;2.57;;
20383;SDS011;46458;50.966;7.002;2023-05-20T04:35:43;4.60;;;2.40;;
20383;SDS011;46458;50.966;7.002;2023-05-20T04:38:12;3.37;;;2.40;;
20383;SDS011;46458;50.966;7.002;2023-05-20T04:40:41;3.67;;;2.57;;
20383;SDS011;46458;50.966;7.002;2023-05-20T04:43:14;3.93;;;2.53;;
20383;SDS011;46458;50.966;7.002;2023-05-20T04:45:51;2.80;;;2.47;;
20383;SDS011;46458;50.966;7.002;2023-05-20T04:48:20;2.70;;;2.50;;
20383;SDS011;46458;50.966;7.002;2023-05-20T04:50:51;4.67;;;2.80;;
20383;SDS011;46458;50.966;7.002;2023-05-20T04:53:21;3.70;;;2.60;;
20383;SDS011;46458;50.966;7.002;2023-05-20T04:55:52;4.00;;;2.83;;
20383;SDS011;46458;50.966;7.002;2023-05-20T04:58:23;3.13;;;2.60;;
20383;SDS011;46458;50.966;7.002;2023-05-20T05:00:58;3.27;;;2.57;;
20383;SDS011;46458;50.966;7.002;2023-05-20T05:03:27;4.30;;;2.70;;
20383;SDS011;46458;50.966;7.002;2023-05-20T05:05:56;3.70;;;2.47;;
20383;SDS011;46458;50.966;7.002;2023-05-20T05:08:25;3.30;;;2.70;;
20383;SDS011;46458;50.966;7.002;2023-05-20T05:10:54;4.87;;;2.70;;
20383;SDS011;46458;50.966;7.002;2023-05-20T05:13:23;5.07;;;2.93;;
20383;SDS011;46458;50.966;7.002;2023-05-20T05:16:01;3.83;;;3.17;;
20383;SDS011;46458;50.966;7.002;2023-05-20T05:18:31;3.33;;;2.70;;
20383;SDS011;46458;50.966;7.002;2023-05-20T05:21:00;2.90;;;2.50;;
20383;SDS011;46458;50.966;7.002;2023-05-20T05:23:30;3.87;;;2.77;;
20383;SDS011;46458;50.966;7.002;2023-05-20T05:26:00;3.47;;;3.07;;
20383;SDS011;46458;50.966;7.002;2023-05-20T05:28:31;3.47;;;2.70;;
20383;SDS011;46458;50.966;7.002;2023-05-20T05:31:05;2.90;;;2.63;;
20383;SDS011;46458;50.966;7.002;2023-05-20T05:33:36;3.70;;;2.57;;
20383;SDS011;46458;50.966;7.002;2023-05-20T05:36:06;4.03;;;3.10;;
20383;SDS011;46458;50.966;7.002;2023-05-20T05:38:34;3.40;;;2.80;;
20383;SDS011;46458;50.966;7.002;2023-05-20T05:41:03;2.97;;;2.40;;
20383;SDS011;46458;50.966;7.002;2023-05-20T05:43:33;3.03;;;2.60;;
20383;SDS011;46458;50.966;7.002;2023-05-20T05:46:05;4.87;;;2.70;;
20383;SDS011;46458;50.966;7.002;2023-05-20T05:48:37;4.03;;;2.70;;
20383;SDS011;46458;50.966;7.002;2023-05-20T05:51:07;4.07;;;2.97;;
20383;SDS011;46458;50.966;7.002;2023-05-20T05:53:38;4.33;;;2.73;;
20383;SDS011;46458;50.966;7.002;2023-05-20T05:56:07;2.83;;;2.53;;
20383;SDS011;46458;50.966;7.002;2023-05-20T05:58:37;4.37;;;3.73;;
20383;SDS011;46458;50.966;7.002;2023-05-20T06:01:09;5.23;;;3.80;;
20383;SDS011;46458;50.966;7.002;2023-05-20T06:03:37;4.20;;;2.70;;
20383;SDS011;46458;50.966;7.002;2023-05-20T06:06:06;5.57;;;3.07;;
20383;SDS011;46458;50.966;7.002;2023-05-20T06:08:35;5.33;;;3.30;;
20383;SDS011;46458;50.966;7.002;2023-05-20T06:11:05;3.00;;;2.63;;
20383;SDS011;46458;50.966;7.002;2023-05-20T06:13:34;2.90;;;2.27;;
20383;SDS011;46458;50.966;7.002;2023-05-20T06:16:03;3.53;;;2.77;;
20383;SDS011;46458;50.966;7.002;2023-05-20T06:18:37;2.87;;;2.37;;
20383;SDS011;46458;50.966;7.002;2023-05-20T06:21:05;5.27;;;2.80;;
20383;SDS011;46458;50.966;7.002;2023-05-20T06:23:35;3.30;;;2.83;;
20383;SDS011;46458;50.966;7.002;2023-05-20T06:26:07;4.37;;;2.80;;
20383;SDS011;46458;50.966;7.002;2023-05-20T06:28:38;5.10;;;3.10;;
20383;SDS011;46458;50.966;7.002;2023-05-20T06:31:07;2.87;;;2.43;;
20383;SDS011;46458;50.966;7.002;2023-05-20T06:33:39;3.80;;;2.60;;
20383;SDS011;46458;50.966;7.002;2023-05-20T06:36:11;3.47;;;2.77;;
20383;SDS011;46458;50.966;7.002;2023-05-20T06:38:39;3.50;;;2.70;;
20383;SDS011;46458;50.966;7.002;2023-05-20T06:41:10;3.57;;;2.63;;
20383;SDS011;46458;50.966;7.002;2023-05-20T06:43:39;2.87;;;2.20;;
20383;SDS011;46458;50.966;7.002;2023-05-20T06:46:37;3.57;;;2.47;;
20383;SDS011;46458;50.966;7.002;2023-05-20T06:49:16;3.27;;;2.80;;
20383;SDS011;46458;50.966;7.002;2023-05-20T06:51:45;3.53;;;2.87;;
20383;SDS011;46458;50.966;7.002;2023-05-20T06:54:13;7.13;;;2.67;;
20383;SDS011;46458;50.966;7.002;2023-05-20T06:56:43;3.33;;;2.53;;
20383;SDS011;46458;50.966;7.002;2023-05-20T06:59:13;6.30;;;2.67;;
20383;SDS011;46458;50.966;7.002;2023-05-20T07:01:42;4.27;;;2.87;;
20383;SDS011;46458;50.966;7.002;2023-05-20T07:04:12;4.33;;;2.67;;
20383;SDS011;46458;50.966;7.002;2023-05-20T07:06:44;4.17;;;2.53;;
20383;SDS011;46458;50.966;7.002;2023-05-20T07:09:13;3.00;;;2.70;;
20383;SDS011;46458;50.966;7.002;2023-05-20T07:11:44;5.23;;;2.77;;
20383;SDS011;46458;50.966;7.002;2023-05-20T07:14:16;5.17;;;3.10;;
20383;SDS011;46458;50.966;7.002;2023-05-20T07:16:46;3.10;;;2.50;;
20383;SDS011;46458;50.966;7.002;2023-05-20T07:19:15;4.00;;;2.80;;
20383;SDS011;46458;50.966;7.002;2023-05-20T07:21:49;3.87;;;2.97;;
20383;SDS011;46458;50.966;7.002;2023-05-20T07:24:33;3.27;;;2.40;;
20383;SDS011;46458;50.966;7.002;2023-05-20T07:27:03;3.00;;;2.40;;
20383;SDS011;46458;50.966;7.002;2023-05-20T07:29:34;5.83;;;2.53;;
20383;SDS011;46458;50.966;7.002;2023-05-20T07:32:05;3.20;;;2.50;;
20383;SDS011;46458;50.966;7.002;2023-05-20T07:34:36;2.70;;;2.50;;
20383;SDS011;46458;50.966;7.002;2023-05-20T07:37:08;4.00;;;2.63;;
20383;SDS011;46458;50.966;7.002;2023-05-20T07:39:37;3.60;;;2.70;;
20383;SDS011;46458;50.966;7.002;2023-05-20T07:42:06;3.83;;;2.40;;
20383;SDS011;46458;50.966;7.002;2023-05-20T07:44:37;3.77;;;2.60;;
20383;SDS011;46458;50.966;7.002;2023-05-20T07:47:06;3.13;;;2.70;;
20383;SDS011;46458;50.966;7.002;2023-05-20T07:49:35;3.70;;;2.60;;
20383;SDS011;46458;50.966;7.002;2023-05-20T07:52:08;3.03;;;2.00;;
20383;SDS011;46458;50.966;7.002;2023-05-20T07:54:37;3.50;;;3.13;;
20383;SDS011;46458;50.966;7.002;2023-05-20T07:57:06;5.47;;;2.50;;
20383;SDS011;46458;50.966;7.002;2023-05-20T07:59:35;3.63;;;2.95;;
20383;SDS011;46458;50.966;7.002;2023-05-20T08:02:06;3.33;;;2.63;;
20383;SDS011;46458;50.966;7.002;2023-05-20T08:04:35;6.82;;;3.05;;
20383;SDS011;46458;50.966;7.002;2023-05-20T08:07:09;3.47;;;2.80;;
20383;SDS011;46458;50.966;7.002;2023-05-20T08:09:50;3.63;;;3.17;;
20383;SDS011;46458;50.966;7.002;2023-05-20T08:12:22;4.03;;;2.60;;
20383;SDS011;46458;50.966;7.002;2023-05-20T08:14:54;4.25;;;3.67;;
20383;SDS011;46458;50.966;7.002;2023-05-20T08:17:23;3.27;;;2.50;;
20383;SDS011;46458;50.966;7.002;2023-05-20T08:19:52;3.23;;;2.63;;
20383;SDS011;46458;50.966;7.002;2023-05-20T08:22:24;3.53;;;2.70;;
20383;SDS011;46458;50.966;7.002;2023-05-20T08:24:52;3.50;;;2.43;;
20383;SDS011;46458;50.966;7.002;2023-05-20T08:27:21;2.75;;;2.30;;
20383;SDS011;46458;50.966;7.002;2023-05-20T08:29:50;3.73;;;2.40;;
20383;SDS011;46458;50.966;7.002;2023-05-20T08:32:19;2.80;;;2.43;;
20383;SDS011;46458;50.966;7.002;2023-05-20T08:34:51;3.95;;;2.70;;
20383;SDS011;46458;50.966;7.002;2023-05-20T08:37:25;3.38;;;3.08;;
20383;SDS011;46458;50.966;7.002;2023-05-20T08:39:53;3.67;;;2.67;;
20383;SDS011;46458;50.966;7.002;2023-05-20T08:42:23;3.25;;;2.67;;
20383;SDS011;46458;50.966;7.002;2023-05-20T08:44:54;3.50;;;2.40;;
20383;SDS011;46458;50.966;7.002;2023-05-20T08:47:26;3.00;;;2.60;;
20383;SDS011;46458;50.966;7.002;2023-05-20T08:49:55;5.40;;;3.25;;
20383;SDS011;46458;50.966;7.002;2023-05-20T08:52:26;2.80;;;2.60;;
20383;SDS011;46458;50.966;7.002;2023-05-20T08:55:01;3.63;;;2.90;;
20383;SDS011;46458;50.966;7.002;2023-05-20T08:57:32;2.85;;;2.47;;
20383;SDS011;46458;50.966;7.002;2023-05-20T09:00:01;2.97;;;2.60;;
20383;SDS011;46458;50.966;7.002;2023-05-20T09:02:38;2.63;;;2.42;;
20383;SDS011;46458;50.966;7.002;2023-05-20T09:05:07;3.85;;;2.95;;
20383;SDS011;46458;50.966;7.002;2023-05-20T09:07:40;3.50;;;2.53;;
20383;SDS011;46458;50.966;7.002;2023-05-20T09:10:12;3.30;;;2.65;;
20383;SDS011;46458;50.966;7.002;2023-05-20T09:12:41;4.00;;;2.92;;
20383;SDS011;46458;50.966;7.002;2023-05-20T09:15:12;3.25;;;2.65;;
20383;SDS011;46458;50.966;7.002;2023-05-20T09:17:41;2.85;;;2.63;;
20383;SDS011;46458;50.966;7.002;2023-05-20T09:20:10;4.45;;;2.83;;
20383;SDS011;46458;50.966;7.002;2023-05-20T09:22:43;3.33;;;3.00;;
20383;SDS011;46458;50.966;7.002;2023-05-20T09:25:12;3.17;;;2.65;;
20383;SDS011;46458;50.966;7.002;2023-05-20T09:27:41;3.67;;;3.25;;
20383;SDS011;46458;50.966;7.002;2023-05-20T09:30:10;3.58;;;3.22;;
20383;SDS011;46458;50.966;7.002;2023-05-20T09:32:40;3.50;;;2.78;;
20383;SDS011;46458;50.966;7.002;2023-05-20T09:35:12;4.50;;;3.25;;
20383;SDS011;46458;50.966;7.002;2023-05-20T09:37:44;3.08;;;2.78;;
20383;SDS011;46458;50.966;7.002;2023-05-20T09:40:15;3.10;;;2.47;;
20383;SDS011;46458;50.966;7.002;2023-05-20T09:42:49;8.75;;;3.60;;
20383;SDS011;46458;50.966;7.002;2023-05-20T09:45:21;4.80;;;3.35;;
20383;SDS011;46458;50.966;7.002;2023-05-20T09:47:50;3.28;;;2.60;;
20383;SDS011;46458;50.966;7.002;2023-05-20T09:50:21;3.55;;;2.65;;
20383;SDS011;46458;50.966;7.002;2023-05-20T09:52:54;3.60;;;2.83;;
20383;SDS011;46458;50.966;7.002;2023-05-20T09:55:23;7.50;;;3.20;;
20383;SDS011;46458;50.966;7.002;2023-05-20T09:57:56;4.00;;;3.00;;
20383;SDS011;46458;50.966;7.002;2023-05-20T10:00:28;3.97;;;3.00;;
20383;SDS011;46458;50.966;7.002;2023-05-20T10:02:58;3.97;;;2.58;;
20383;SDS011;46458;50.966;7.002;2023-05-20T10:05:30;3.80;;;3.20;;
20383;SDS011;46458;50.966;7.002;2023-05-20T10:11:03;4.22;;;2.80;;
20383;SDS011;46458;50.966;7.002;2023-05-20T10:13:44;4.45;;;2.95;;
20383;SDS011;46458;50.966;7.002;2023-05-20T10:16:28;4.13;;;2.90;;
20383;SDS011;46458;50.966;7.002;2023-05-20T10:19:09;4.60;;;3.00;;
20383;SDS011;46458;50.966;7.002;2023-05-20T10:21:54;3.20;;;2.75;;
20383;SDS011;46458;50.966;7.002;2023-05-20T10:24:33;3.08;;;2.70;;
20383;SDS011;46458;50.966;7.002;2023-05-20T10:27:07;4.35;;;2.38;;
20383;SDS011;46458;50.966;7.002;2023-05-20T10:29:41;3.97;;;2.97;;
20383;SDS011;46458;50.966;7.002;2023-05-20T10:32:24;4.53;;;2.78;;
20383;SDS011;46458;50.966;7.002;2023-05-20T10:34:57;3.03;;;2.60;;
20383;SDS011;46458;50.966;7.002;2023-05-20T10:37:31;4.35;;;2.92;;
20383;SDS011;46458;50.966;7.002;2023-05-20T10:40:05;3.05;;;2.75;;
20383;SDS011;46458;50.966;7.002;2023-05-20T10:42:36;5.20;;;2.90;;
20383;SDS011;46458;50.966;7.002;2023-05-20T10:45:06;7.20;;;2.97;;
20383;SDS011;46458;50.966;7.002;2023-05-20T10:47:36;3.00;;;2.70;;
20383;SDS011;46458;50.966;7.002;2023-05-20T10:50:12;3.35;;;2.58;;
20383;SDS011;46458;50.966;7.002;2023-05-20T10:53:01;5.85;;;3.25;;
20383;SDS011;46458;50.966;7.002;2023-05-20T10:55:37;4.88;;;3.03;;
20383;SDS011;46458;50.966;7.002;2023-05-20T10:58:08;5.25;;;3.00;;
20383;SDS011;46458;50.966;7.002;2023-05-20T11:00:37;3.13;;;2.88;;
20383;SDS011;46458;50.966;7.002;2023-05-20T11:03:06;5.40;;;3.17;;
20383;SDS011;46458;50.966;7.002;2023-05-20T11:05:38;4.85;;;3.10;;
20383;SDS011;46458;50.966;7.002;2023-05-20T11:08:09;5.10;;;3.30;;
20383;SDS011;46458;50.966;7.002;2023-05-20T11:10:41;3.88;;;3.50;;
20383;SDS011;46458;50.966;7.002;2023-05-20T11:13:11;3.92;;;3.28;;
20383;SDS011;46458;50.966;7.002;2023-05-20T11:15:41;4.35;;;3.40;;
20383;SDS011;46458;50.966;7.002;2023-05-20T11:18:10;3.97;;;3.40;;
20383;SDS011;46458;50.966;7.002;2023-05-20T11:20:40;4.57;;;3.45;;
20383;SDS011;46458;50.966;7.002;2023-05-20T11:23:13;3.65;;;3.15;;
20383;SDS011;46458;50.966;7.002;2023-05-20T11:25:51;3.03;;;2.80;;
20383;SDS011;46458;50.966;7.002;2023-05-20T11:28:23;4.70;;;3.40;;
20383;SDS011;46458;50.966;7.002;2023-05-20T11:30:52;6.03;;;3.42;;
20383;SDS011;46458;50.966;7.002;2023-05-20T11:33:24;4.85;;;3.97;;
20383;SDS011;46458;50.966;7.002;2023-05-20T11:35:55;5.10;;;3.38;;
20383;SDS011;46458;50.966;7.002;2023-05-20T11:38:24;5.25;;;3.70;;
20383;SDS011;46458;50.966;7.002;2023-05-20T11:40:59;6.97;;;3.60;;
20383;SDS011;46458;50.966;7.002;2023-05-20T11:43:28;6.40;;;4.15;;
20383;SDS011;46458;50.966;7.002;2023-05-20T11:46:00;4.68;;;3.85;;
20383;SDS011;46458;50.966;7.002;2023-05-20T11:48:29;5.18;;;3.28;;
20383;SDS011;46458;50.966;7.002;2023-05-20T11:50:58;4.18;;;3.53;;
20383;SDS011;46458;50.966;7.002;2023-05-20T11:53:27;4.57;;;3.33;;
20383;SDS011;46458;50.966;7.002;2023-05-20T11:56:02;5.30;;;3.90;;
20383;SDS011;46458;50.966;7.002;2023-05-20T11:58:31;7.80;;;4.80;;
20383;SDS011;46458;50.966;7.002;2023-05-20T12:01:00;5.68;;;3.80;;
20383;SDS011;46458;50.966;7.002;2023-05-20T12:03:29;3.72;;;3.42;;
20383;SDS011;46458;50.966;7.002;2023-05-20T12:05:59;4.13;;;3.70;;
20383;SDS011;46458;50.966;7.002;2023-05-20T12:08:28;3.70;;;3.40;;
20383;SDS011;46458;50.966;7.002;2023-05-20T12:10:57;4.82;;;3.90;;
20383;SDS011;46458;50.966;7.002;2023-05-20T12:13:28;4.40;;;3.95;;
20383;SDS011;46458;50.966;7.002;2023-05-20T12:15:57;6.70;;;4.97;;
20383;SDS011;46458;50.966;7.002;2023-05-20T12:18:26;5.07;;;4.47;;
20383;SDS011;46458;50.966;7.002;2023-05-20T12:20:55;4.40;;;3.92;;
20383;SDS011;46458;50.966;7.002;2023-05-20T12:23:24;4.22;;;3.60;;
20383;SDS011;46458;50.966;7.002;2023-05-20T12:25:54;4.95;;;3.90;;
20383;SDS011;46458;50.966;7.002;2023-05-20T12:28:23;4.72;;;4.13;;
20383;SDS011;46458;50.966;7.002;2023-05-20T12:30:55;4.38;;;3.95;;
20383;SDS011;46458;50.966;7.002;2023-05-20T12:33:26;5.47;;;4.30;;
20383;SDS011;46458;50.966;7.002;2023-05-20T12:35:58;4.40;;;3.90;;
20383;SDS011;46458;50.966;7.002;2023-05-20T12:38:27;7.32;;;5.25;;
20383;SDS011;46458;50.966;7.002;2023-05-20T12:40:56;4.63;;;4.10;;
20383;SDS011;46458;50.966;7.002;2023-05-20T12:43:25;4.82;;;3.60;;
20383;SDS011;46458;50.966;7.002;2023-05-20T12:45:56;11.40;;;6.30;;
20383;SDS011;46458;50.966;7.002;2023-05-20T12:48:27;5.55;;;4.60;;
20383;SDS011;46458;50.966;7.002;2023-05-20T12:50:56;5.05;;;4.55;;
20383;SDS011;46458;50.966;7.002;2023-05-20T12:53:25;5.47;;;4.15;;
20383;SDS011;46458;50.966;7.002;2023-05-20T12:55:54;5.85;;;4.40;;
20383;SDS011;46458;50.966;7.002;2023-05-20T12:58:23;6.00;;;3.83;;
20383;SDS011;46458;50.966;7.002;2023-05-20T13:00:52;4.40;;;4.00;;
20383;SDS011;46458;50.966;7.002;2023-05-20T13:03:23;6.20;;;3.83;;
20383;SDS011;46458;50.966;7.002;2023-05-20T13:05:52;7.07;;;5.65;;
20383;SDS011;46458;50.966;7.002;2023-05-20T13:08:21;8.10;;;6.32;;
20383;SDS011;46458;50.966;7.002;2023-05-20T13:10:52;7.18;;;5.95;;
20383;SDS011;46458;50.966;7.002;2023-05-20T13:13:20;4.60;;;4.00;;
20383;SDS011;46458;50.966;7.002;2023-05-20T13:15:51;4.70;;;3.80;;
20383;SDS011;46458;50.966;7.002;2023-05-20T13:18:20;5.95;;;3.95;;
20383;SDS011;46458;50.966;7.002;2023-05-20T13:20:51;5.65;;;3.80;;
20383;SDS011;46458;50.966;7.002;2023-05-20T13:23:20;3.72;;;3.30;;
20383;SDS011;46458;50.966;7.002;2023-05-20T13:25:48;4.22;;;3.67;;
20383;SDS011;46458;50.966;7.002;2023-05-20T13:28:17;5.57;;;3.80;;
20383;SDS011;46458;50.966;7.002;2023-05-20T13:30:46;3.80;;;3.10;;
20383;SDS011;46458;50.966;7.002;2023-05-20T13:33:18;7.03;;;4.38;;
20383;SDS011;46458;50.966;7.002;2023-05-20T13:35:53;4.13;;;3.72;;
20383;SDS011;46458;50.966;7.002;2023-05-20T13:38:22;4.55;;;3.92;;
20383;SDS011;46458;50.966;7.002;2023-05-20T13:40:50;3.50;;;3.20;;
20383;SDS011;46458;50.966;7.002;2023-05-20T13:43:23;4.40;;;3.40;;
20383;SDS011;46458;50.966;7.002;2023-05-20T13:45:53;4.47;;;3.80;;
20383;SDS011;46458;50.966;7.002;2023-05-20T13:48:22;4.38;;;3.97;;
20383;SDS011;46458;50.966;7.002;2023-05-20T13:50:56;4.28;;;3.88;;
20383;SDS011;46458;50.966;7.002;2023-05-20T13:53:26;5.07;;;3.63;;
20383;SDS011;46458;50.966;7.002;2023-05-20T13:55:55;4.30;;;3.67;;
20383;SDS011;46458;50.966;7.002;2023-05-20T13:58:24;4.22;;;3.80;;
20383;SDS011;46458;50.966;7.002;2023-05-20T14:00:52;4.80;;;3.58;;
20383;SDS011;46458;50.966;7.002;2023-05-20T14:03:25;5.60;;;4.03;;
20383;SDS011;46458;50.966;7.002;2023-05-20T14:05:57;3.67;;;3.38;;
20383;SDS011;46458;50.966;7.002;2023-05-20T14:08:26;4.63;;;3.45;;
20383;SDS011;46458;50.966;7.002;2023-05-20T14:10:54;5.40;;;4.03;;
20383;SDS011;46458;50.966;7.002;2023-05-20T14:13:23;4.18;;;3.78;;
20383;SDS011;46458;50.966;7.002;2023-05-20T14:15:53;4.60;;;4.10;;
20383;SDS011;46458;50.966;7.002;2023-05-20T14:18:21;5.05;;;3.45;;
20383;SDS011;46458;50.966;7.002;2023-05-20T14:20:50;4.13;;;3.35;;
20383;SDS011;46458;50.966;7.002;2023-05-20T14:23:23;3.70;;;3.40;;
20383;SDS011;46458;50.966;7.002;2023-05-20T14:25:51;4.55;;;4.03;;
20383;SDS011;46458;50.966;7.002;2023-05-20T14:28:20;4.53;;;3.65;;
20383;SDS011;46458;50.966;7.002;2023-05-20T14:30:49;4.05;;;3.53;;
20383;SDS011;46458;50.966;7.002;2023-05-20T14:33:18;4.88;;;3.70;;
20383;SDS011;46458;50.966;7.002;2023-05-20T14:35:47;4.93;;;3.50;;
20383;SDS011;46458;50.966;7.002;2023-05-20T14:38:16;3.95;;;3.47;;
20383;SDS011;46458;50.966;7.002;2023-05-20T14:40:48;6.63;;;3.55;;
20383;SDS011;46458;50.966;7.002;2023-05-20T14:43:19;3.90;;;3.50;;
20383;SDS011;46458;50.966;7.002;2023-05-20T14:45:48;4.15;;;3.60;;
20383;SDS011;46458;50.966;7.002;2023-05-20T14:48:17;5.18;;;3.67;;
20383;SDS011;46458;50.966;7.002;2023-05-20T14:50:45;3.70;;;3.33;;
20383;SDS011;46458;50.966;7.002;2023-05-20T14:53:14;3.97;;;3.58;;
20383;SDS011;46458;50.966;7.002;2023-05-20T14:55:43;4.55;;;3.78;;
20383;SDS011;46458;50.966;7.002;2023-05-20T14:58:18;4.97;;;4.30;;
20383;SDS011;46458;50.966;7.002;2023-05-20T15:00:46;6.40;;;3.97;;
20383;SDS011;46458;50.966;7.002;2023-05-20T15:03:15;4.75;;;3.80;;
20383;SDS011;46458;50.966;7.002;2023-05-20T15:05:44;18.33;;;11.82;;
20383;SDS011;46458;50.966;7.002;2023-05-20T15:08:13;9.15;;;5.60;;
20383;SDS011;46458;50.966;7.002;2023-05-20T15:10:42;3.90;;;3.50;;
20383;SDS011;46458;50.966;7.002;2023-05-20T15:13:11;3.42;;;3.13;;